createdAt,value
2023-08-17T00:00:01.056Z,20.1
2023-08-17T00:01:01.393Z,19.9
2023-08-17T00:03:01.020Z,19.7
2023-08-17T00:04:01.217Z,19.8
2023-08-17T00:09:01.506Z,19.7
2023-08-17T00:11:01.092Z,19.8
2023-08-17T00:13:00.963Z,20
2023-08-17T00:14:00.971Z,19.7
2023-08-17T00:15:01.209Z,19.8
2023-08-17T00:18:01.081Z,19.7
2023-08-17T00:20:01.078Z,19.8
2023-08-17T00:21:01.107Z,19.9
2023-08-17T00:23:01.006Z,19.6
2023-08-17T00:24:01.063Z,19.5
2023-08-17T00:26:01.029Z,19.4
2023-08-17T00:27:01.146Z,19.7
2023-08-17T00:36:01.016Z,19.7
2023-08-17T00:38:00.983Z,19.7
2023-08-17T00:39:01.003Z,19.6
2023-08-17T00:41:01.035Z,19.7
2023-08-17T00:42:01.043Z,19.5
2023-08-17T00:44:01.043Z,19.6
2023-08-17T00:46:00.963Z,19.5
2023-08-17T00:47:00.941Z,19.6
2023-08-17T00:49:00.989Z,19.5
2023-08-17T00:51:01.077Z,19.6
2023-08-17T00:53:00.981Z,19.4
2023-08-17T00:54:01.051Z,19.6
2023-08-17T00:56:01.003Z,19.3
2023-08-17T00:57:01.028Z,19.4
2023-08-17T00:59:01.060Z,19.4
2023-08-17T01:01:01.015Z,19.4
2023-08-17T01:02:01.183Z,19.3
2023-08-17T01:04:01.028Z,19.3
2023-08-17T01:06:01.043Z,19.6
2023-08-17T01:10:01.006Z,19.5
2023-08-17T01:11:00.985Z,19.4
2023-08-17T01:12:00.992Z,19.5
2023-08-17T01:14:00.995Z,19.4
2023-08-17T01:15:01.014Z,19.2
2023-08-17T01:17:00.959Z,19.2
2023-08-17T01:18:01.013Z,19.4
2023-08-17T01:20:01.068Z,19.2
2023-08-17T01:22:01.082Z,19
2023-08-17T01:29:01.037Z,19.1
2023-08-17T01:32:01.000Z,19.2
2023-08-17T01:33:01.078Z,19.1
2023-08-17T01:36:01.059Z,19
2023-08-17T01:38:01.004Z,19.1
2023-08-17T01:39:01.023Z,19
2023-08-17T01:40:01.003Z,19.1
2023-08-17T01:42:01.047Z,19
2023-08-17T01:44:01.133Z,19
2023-08-17T01:47:01.073Z,18.9
2023-08-17T01:50:01.032Z,18.7
2023-08-17T01:52:01.060Z,18.8
2023-08-17T01:53:01.128Z,18.9
2023-08-17T01:55:00.990Z,18.9
2023-08-17T01:58:01.108Z,18.7
2023-08-17T02:00:01.177Z,18.8
2023-08-17T02:03:01.123Z,18.8
2023-08-17T02:05:01.098Z,18.9
2023-08-17T02:07:00.985Z,18.7
2023-08-17T02:08:01.053Z,18.8
2023-08-17T02:09:01.156Z,18.8
2023-08-17T02:10:01.103Z,18.7
2023-08-17T02:12:01.122Z,18.9
2023-08-17T02:17:01.111Z,18.8
2023-08-17T02:18:01.216Z,18.7
2023-08-17T02:20:01.129Z,18.9
2023-08-17T02:25:01.172Z,18.7
2023-08-17T02:32:01.286Z,18.8
2023-08-17T02:34:01.031Z,18.7
2023-08-17T02:36:01.065Z,18.7
2023-08-17T02:40:01.063Z,18.6
2023-08-17T02:41:01.030Z,18.7
2023-08-17T02:43:00.979Z,18.5
2023-08-17T02:44:00.986Z,18.6
2023-08-17T02:46:01.065Z,18.7
2023-08-17T02:48:01.175Z,18.6
2023-08-17T02:51:01.060Z,18.6
2023-08-17T02:53:00.967Z,18.5
2023-08-17T02:56:00.951Z,18.6
2023-08-17T02:57:00.962Z,18.5
2023-08-17T02:59:00.992Z,18.3
2023-08-17T03:00:01.156Z,18.5
2023-08-17T03:02:01.042Z,18.4
2023-08-17T03:03:01.185Z,18.6
2023-08-17T03:05:00.961Z,18.4
2023-08-17T03:06:01.035Z,18.5
2023-08-17T03:07:01.054Z,18.3
2023-08-17T03:09:00.996Z,18.5
2023-08-17T03:10:00.997Z,18.4
2023-08-17T03:11:01.034Z,18.6
2023-08-17T03:12:01.064Z,18.5
2023-08-17T03:17:00.976Z,18.6
2023-08-17T03:18:01.041Z,18.8
2023-08-17T03:20:00.963Z,18.6
2023-08-17T03:21:01.129Z,18.7
2023-08-17T03:23:00.996Z,18.6
2023-08-17T03:24:01.063Z,18.7
2023-08-17T03:27:01.017Z,18.8
2023-08-17T03:28:00.999Z,18.7
2023-08-17T03:31:01.018Z,18.8
2023-08-17T03:32:01.025Z,18.7
2023-08-17T03:33:01.037Z,18.9
2023-08-17T03:34:01.045Z,18.8
2023-08-17T03:38:00.973Z,18.9
2023-08-17T03:39:01.025Z,18.8
2023-08-17T03:40:01.022Z,18.8
2023-08-17T03:42:01.145Z,18.8
2023-08-17T03:43:01.141Z,18.7
2023-08-17T03:45:01.136Z,18.8
2023-08-17T03:48:01.091Z,18.6
2023-08-17T03:50:01.055Z,18.6
2023-08-17T03:52:01.097Z,18.6
2023-08-17T03:54:01.374Z,18.5
2023-08-17T03:56:01.064Z,18.6
2023-08-17T03:58:01.025Z,18.5
2023-08-17T04:00:01.133Z,18.7
2023-08-17T04:02:01.105Z,18.6
2023-08-17T04:04:01.027Z,18.6
2023-08-17T04:06:01.201Z,18.5
2023-08-17T04:10:01.046Z,18.6
2023-08-17T04:14:01.012Z,18.7
2023-08-17T04:15:01.156Z,18.5
2023-08-17T04:18:01.086Z,18.6
2023-08-17T04:19:01.112Z,18.5
2023-08-17T04:22:01.049Z,18.6
2023-08-17T04:23:01.027Z,18.7
2023-08-17T04:24:01.074Z,18.6
2023-08-17T04:26:00.962Z,18.5
2023-08-17T04:27:01.078Z,18.7
2023-08-17T04:29:01.016Z,18.7
2023-08-17T04:32:01.099Z,18.6
2023-08-17T04:34:01.005Z,18.7
2023-08-17T04:36:01.079Z,18.5
2023-08-17T04:38:00.991Z,18.9
2023-08-17T04:39:01.037Z,18.7
2023-08-17T04:41:01.079Z,18.8
2023-08-17T04:44:01.039Z,18.7
2023-08-17T04:45:01.042Z,18.9
2023-08-17T04:47:01.022Z,18.7
2023-08-17T04:51:01.086Z,18.6
2023-08-17T04:52:01.069Z,18.7
2023-08-17T04:54:01.144Z,18.7
2023-08-17T04:56:01.056Z,18.9
2023-08-17T04:58:01.031Z,18.8
2023-08-17T05:00:00.987Z,18.7
2023-08-17T05:01:01.365Z,18.6
2023-08-17T05:03:01.292Z,18.9
2023-08-17T05:07:01.266Z,18.7
2023-08-17T05:11:01.497Z,18.8
2023-08-17T05:15:01.346Z,18.7
2023-08-17T05:20:01.512Z,18.8
2023-08-17T05:21:01.445Z,18.7
2023-08-17T05:23:01.162Z,18.8
2023-08-17T05:27:01.405Z,18.9
2023-08-17T05:31:01.071Z,18.8
2023-08-17T05:33:01.223Z,18.9
2023-08-17T05:36:01.940Z,19.1
2023-08-17T05:37:01.095Z,18.8
2023-08-17T05:39:01.094Z,18.9
2023-08-17T05:40:01.077Z,19.1
2023-08-17T05:41:01.061Z,19
2023-08-17T05:43:01.077Z,19.1
2023-08-17T05:44:01.140Z,19
2023-08-17T05:47:01.120Z,19.3
2023-08-17T05:50:01.004Z,19.2
2023-08-17T05:53:01.203Z,19.4
2023-08-17T05:55:01.052Z,19.5
2023-08-17T05:56:01.196Z,20
2023-08-17T05:58:01.102Z,20.6
2023-08-17T05:59:01.145Z,20.9
2023-08-17T06:00:01.205Z,21.1
2023-08-17T06:02:00.986Z,21.5
2023-08-17T06:06:01.057Z,21.4
2023-08-17T06:07:01.062Z,21.2
2023-08-17T06:08:01.065Z,21.1
2023-08-17T06:09:01.188Z,21.2
2023-08-17T06:11:01.133Z,20.9
2023-08-17T06:14:01.079Z,21.1
2023-08-17T06:15:01.054Z,21
2023-08-17T06:16:01.375Z,21.2
2023-08-17T06:18:01.102Z,20.9
2023-08-17T06:21:01.077Z,21.1
2023-08-17T06:22:01.051Z,20.8
2023-08-17T06:23:01.372Z,20.7
2023-08-17T06:27:01.104Z,20.4
2023-08-17T06:31:01.084Z,20.2
2023-08-17T06:33:01.237Z,20.4
2023-08-17T06:35:01.120Z,20.3
2023-08-17T06:36:01.156Z,20.2
2023-08-17T06:39:01.068Z,20.4
2023-08-17T06:41:01.071Z,20.3
2023-08-17T06:43:01.213Z,20.2
2023-08-17T06:44:01.196Z,20.4
2023-08-17T06:46:01.165Z,20.6
2023-08-17T06:47:01.121Z,20.4
2023-08-17T06:48:01.222Z,20.6
2023-08-17T06:52:01.175Z,20.5
2023-08-17T06:53:01.137Z,20.6
2023-08-17T06:55:01.220Z,20.7
2023-08-17T06:57:01.174Z,20.9
2023-08-17T06:59:01.186Z,21.3
2023-08-17T07:01:01.175Z,21.7
2023-08-17T07:02:01.248Z,21.6
2023-08-17T07:07:01.092Z,22.3
2023-08-17T07:09:01.067Z,22.7
2023-08-17T07:11:01.113Z,22.9
2023-08-17T07:12:01.202Z,23.1
2023-08-17T07:14:01.102Z,23.2
2023-08-17T07:15:01.251Z,23.6
2023-08-17T07:17:01.184Z,23.6
2023-08-17T07:19:01.108Z,23.6
2023-08-17T07:20:15.339Z,23.8
2023-08-17T07:22:01.084Z,23.7
2023-08-17T07:23:01.099Z,23.8
2023-08-17T07:24:01.301Z,23.5
2023-08-17T07:26:01.032Z,23.7
2023-08-17T07:27:01.194Z,23.6
2023-08-17T07:29:01.138Z,23.4
2023-08-17T07:31:01.108Z,23.6
2023-08-17T07:33:01.185Z,23.9
2023-08-17T07:35:01.101Z,24
2023-08-17T07:36:01.148Z,24.1
2023-08-17T07:37:01.217Z,24.2
2023-08-17T07:39:01.144Z,24.6
2023-08-17T07:40:01.137Z,24.5
2023-08-17T07:43:01.114Z,24.3
2023-08-17T07:45:01.157Z,24.7
2023-08-17T07:46:01.295Z,24.6
2023-08-17T07:48:01.183Z,24.4
2023-08-17T07:49:01.141Z,24.3
2023-08-17T07:51:01.032Z,24.3
2023-08-17T07:53:01.089Z,24.5
2023-08-17T07:54:01.137Z,24.3
2023-08-17T07:56:01.163Z,24.4
2023-08-17T07:58:01.030Z,24.3
2023-08-17T07:59:01.178Z,24.4
2023-08-17T08:01:02.700Z,24.6
2023-08-17T08:04:01.181Z,24.7
2023-08-17T08:06:01.017Z,24.8
2023-08-17T08:07:01.069Z,24.9
2023-08-17T08:08:01.068Z,24.7
2023-08-17T08:10:01.087Z,24.9
2023-08-17T08:12:01.106Z,25.1
2023-08-17T08:13:01.125Z,25
2023-08-17T08:15:01.277Z,24.9
2023-08-17T08:18:01.091Z,25.1
2023-08-17T08:20:01.105Z,25.3
2023-08-17T08:21:01.060Z,25.6
2023-08-17T08:24:01.252Z,25.5
2023-08-17T08:26:01.209Z,25.3
2023-08-17T08:28:01.031Z,25.3
2023-08-17T08:30:01.265Z,25
2023-08-17T08:32:01.215Z,24.9
2023-08-17T08:34:01.026Z,25
2023-08-17T08:36:01.025Z,25.2
2023-08-17T08:38:01.078Z,25.4
2023-08-17T08:39:01.157Z,25.6
2023-08-17T08:41:01.142Z,25.9
2023-08-17T08:42:01.144Z,25.7
2023-08-17T08:44:01.123Z,26
2023-08-17T08:46:01.113Z,26.1
2023-08-17T08:47:01.120Z,26.3
2023-08-17T08:50:01.100Z,26.5
2023-08-17T08:52:01.006Z,26.7
2023-08-17T08:53:01.144Z,26.6
2023-08-17T08:56:01.130Z,26.6
2023-08-17T08:57:01.263Z,26.9
2023-08-17T08:59:01.304Z,26.7
2023-08-17T09:01:01.145Z,26.6
2023-08-17T09:04:01.063Z,26.7
2023-08-17T09:05:01.216Z,26.8
2023-08-17T09:07:01.126Z,26.9
2023-08-17T09:10:01.053Z,26.8
2023-08-17T09:13:01.148Z,27.1
2023-08-17T09:15:01.263Z,27.2
2023-08-17T09:17:01.232Z,27.6
2023-08-17T09:20:01.122Z,27.9
2023-08-17T09:21:01.395Z,28
2023-08-17T09:23:01.113Z,28.2
2023-08-17T09:24:01.132Z,28.4
2023-08-17T09:27:01.118Z,28.6
2023-08-17T09:29:01.056Z,28.7
2023-08-17T09:31:01.232Z,28.4
2023-08-17T09:33:01.120Z,28.2
2023-08-17T09:34:01.100Z,28.3
2023-08-17T09:35:01.090Z,28.1
2023-08-17T09:36:01.112Z,28
2023-08-17T09:37:03.866Z,27.9
2023-08-17T09:40:01.181Z,27.7
2023-08-17T09:42:01.159Z,27.8
2023-08-17T09:45:01.288Z,27.6
2023-08-17T09:48:03.191Z,27.7
2023-08-17T09:50:01.093Z,27.6
2023-08-17T09:52:01.163Z,27.5
2023-08-17T09:53:01.280Z,27.4
2023-08-17T09:55:01.197Z,27.4
2023-08-17T09:58:01.048Z,27.1
2023-08-17T09:59:01.179Z,27.3
2023-08-17T10:00:01.379Z,27.2
2023-08-17T10:02:01.164Z,27.5
2023-08-17T10:05:01.085Z,27.7
2023-08-17T10:07:01.123Z,27.6
2023-08-17T10:08:01.230Z,27.5
2023-08-17T10:10:01.057Z,27.8
2023-08-17T10:13:06.003Z,28.2
2023-08-17T10:14:01.140Z,28.5
2023-08-17T10:15:01.202Z,28.8
2023-08-17T10:17:01.199Z,29
2023-08-17T10:19:01.145Z,29.2
2023-08-17T10:21:01.240Z,29.4
2023-08-17T10:24:01.270Z,29.4
2023-08-17T10:26:01.177Z,29.6
2023-08-17T10:29:04.414Z,30
2023-08-17T10:30:01.254Z,29.9
2023-08-17T10:33:01.175Z,30.1
2023-08-17T10:35:01.148Z,30.3
2023-08-17T10:37:01.160Z,30.4
2023-08-17T10:39:01.092Z,30.1
2023-08-17T10:40:01.149Z,30
2023-08-17T10:41:01.104Z,29.9
2023-08-17T10:43:01.198Z,29.6
2023-08-17T10:45:01.138Z,29.6
2023-08-17T10:46:01.301Z,29.7
2023-08-17T10:48:01.234Z,29.8
2023-08-17T10:50:01.057Z,29.7
2023-08-17T10:51:01.113Z,29.9
2023-08-17T10:53:01.200Z,30.1
2023-08-17T10:55:01.145Z,29.9
2023-08-17T10:58:01.281Z,29.7
2023-08-17T11:02:01.038Z,29.8
2023-08-17T11:04:01.219Z,30.1
2023-08-17T11:06:01.116Z,30
2023-08-17T11:07:01.165Z,30.1
2023-08-17T11:09:01.214Z,29.9
2023-08-17T11:12:01.062Z,30
2023-08-17T11:13:01.098Z,30.1
2023-08-17T11:14:01.321Z,30.2
2023-08-17T11:15:01.274Z,30.3
2023-08-17T11:19:01.081Z,30.5
2023-08-17T11:21:01.243Z,30.6
2023-08-17T11:23:01.272Z,30.5
2023-08-17T11:26:01.154Z,30.4
2023-08-17T11:28:01.035Z,30.4
2023-08-17T11:32:01.090Z,30.2
2023-08-17T11:35:01.146Z,30.1
2023-08-17T11:38:01.164Z,30.4
2023-08-17T11:40:01.153Z,30.5
2023-08-17T11:41:01.116Z,30.7
2023-08-17T11:42:01.176Z,30.6
2023-08-17T11:44:01.208Z,30.5
2023-08-17T11:46:01.067Z,30.6
2023-08-17T11:48:01.099Z,30.7
2023-08-17T11:51:01.114Z,30.8
2023-08-17T11:54:01.046Z,30.7
2023-08-17T11:55:01.065Z,30.8
2023-08-17T11:56:04.047Z,31
2023-08-17T11:59:01.071Z,31.2
2023-08-17T12:00:01.142Z,31.4
2023-08-17T12:01:01.149Z,31.5
2023-08-17T12:03:01.322Z,31.4
2023-08-17T12:05:01.263Z,31.4
2023-08-17T12:07:01.122Z,31.5
2023-08-17T12:10:01.144Z,31.3
2023-08-17T12:11:01.136Z,31.2
2023-08-17T12:13:01.048Z,31.1
2023-08-17T12:17:01.174Z,30.7
2023-08-17T12:19:01.068Z,30.4
2023-08-17T12:20:01.233Z,30.5
2023-08-17T12:23:01.097Z,30.2
2023-08-17T12:25:01.202Z,30.1
2023-08-17T12:31:01.181Z,29.7
2023-08-17T12:32:01.209Z,29.8
2023-08-17T12:34:00.988Z,29.4
2023-08-17T12:35:01.160Z,29.5
2023-08-17T12:37:01.181Z,29.2
2023-08-17T12:40:01.087Z,28.6
2023-08-17T12:41:06.710Z,28.5
2023-08-17T12:44:01.041Z,28.2
2023-08-17T12:46:01.130Z,28
2023-08-17T12:47:01.184Z,27.9
2023-08-17T12:49:01.102Z,27.7
2023-08-17T12:50:01.228Z,27.6
2023-08-17T12:52:01.132Z,27.4
2023-08-17T12:54:01.061Z,27.2
2023-08-17T12:56:01.061Z,27.1
2023-08-17T12:58:02.348Z,27
2023-08-17T13:00:01.148Z,26.8
2023-08-17T13:03:01.204Z,26.7
2023-08-17T13:05:01.062Z,26.6
2023-08-17T13:07:01.109Z,26.7
2023-08-17T13:09:01.227Z,26.8
2023-08-17T13:10:01.312Z,26.7
2023-08-17T13:13:01.334Z,26.9
2023-08-17T13:15:01.138Z,27
2023-08-17T13:18:01.262Z,27.4
2023-08-17T13:20:01.053Z,27.7
2023-08-17T13:21:01.276Z,27.8
2023-08-17T13:23:01.115Z,28.1
2023-08-17T13:25:01.131Z,28.2
2023-08-17T13:26:01.186Z,28.3
2023-08-17T13:28:01.115Z,28.4
2023-08-17T13:31:14.216Z,28.2
2023-08-17T13:34:01.167Z,28.1
2023-08-17T13:35:01.160Z,28.3
2023-08-17T13:36:01.166Z,28.2
2023-08-17T13:37:01.202Z,28.1
2023-08-17T13:39:01.330Z,28.1
2023-08-17T13:41:01.188Z,28.1
2023-08-17T13:43:01.176Z,28
2023-08-17T13:45:01.125Z,28.3
2023-08-17T13:46:01.196Z,28.2
2023-08-17T13:48:01.208Z,28
2023-08-17T13:49:01.218Z,27.9
2023-08-17T13:51:01.196Z,27.9
2023-08-17T13:53:01.109Z,27.7
2023-08-17T13:56:01.177Z,28.1
2023-08-17T13:58:01.186Z,28.2
2023-08-17T14:00:01.260Z,28.6
2023-08-17T14:02:01.064Z,28.7
2023-08-17T14:04:01.199Z,28.6
2023-08-17T14:05:01.101Z,28.7
2023-08-17T14:08:01.049Z,28.3
2023-08-17T14:09:01.381Z,28.4
2023-08-17T14:11:01.056Z,28.2
2023-08-17T14:12:01.199Z,28.3
2023-08-17T14:13:01.088Z,28.2
2023-08-17T14:20:01.029Z,28.3
2023-08-17T14:21:01.135Z,28.2
2023-08-17T14:24:01.006Z,28.1
2023-08-17T14:25:01.082Z,28.2
2023-08-17T14:27:01.197Z,28.1
2023-08-17T14:30:01.271Z,27.8
2023-08-17T14:33:01.744Z,27.8
2023-08-17T14:35:01.175Z,27.8
2023-08-17T14:38:00.981Z,27.5
2023-08-17T14:39:01.313Z,27.6
2023-08-17T14:42:01.132Z,27.4
2023-08-17T14:44:03.050Z,27.2
2023-08-17T14:45:07.007Z,27.3
2023-08-17T14:47:01.056Z,27.2
2023-08-17T14:48:01.103Z,27.1
2023-08-17T14:49:01.077Z,27
2023-08-17T14:52:01.007Z,26.9
2023-08-17T14:53:01.127Z,26.8
2023-08-17T14:57:01.032Z,26.5
2023-08-17T14:59:01.116Z,26.4
2023-08-17T15:02:01.020Z,26.1
2023-08-17T15:03:01.230Z,26.2
2023-08-17T15:05:01.102Z,26
2023-08-17T15:07:01.122Z,25.9
2023-08-17T15:09:01.039Z,25.8
2023-08-17T15:11:02.309Z,25.6
2023-08-17T15:13:01.126Z,25.5
2023-08-17T15:16:01.122Z,25.4
2023-08-17T15:17:01.129Z,25.3
2023-08-17T15:20:01.067Z,25.2
2023-08-17T15:21:01.246Z,25.3
2023-08-17T15:23:01.080Z,25.1
2023-08-17T15:25:01.176Z,25.2
2023-08-17T15:28:01.011Z,24.8
2023-08-17T15:31:01.105Z,24.7
2023-08-17T15:33:01.164Z,24.5
2023-08-17T15:36:01.040Z,24.4
2023-08-17T15:37:01.128Z,24.2
2023-08-17T15:39:01.121Z,24.3
2023-08-17T15:41:01.271Z,24
2023-08-17T15:45:01.192Z,23.8
2023-08-17T15:47:01.616Z,23.7
2023-08-17T15:49:01.142Z,23.9
2023-08-17T15:52:02.521Z,23.8
2023-08-17T15:57:01.123Z,23.9
2023-08-17T15:59:01.074Z,23.8
2023-08-17T16:01:01.366Z,23.7
2023-08-17T16:03:01.192Z,23.9
2023-08-17T16:05:01.152Z,23.8
2023-08-17T16:07:01.124Z,23.9
2023-08-17T16:09:01.130Z,23.8
2023-08-17T16:11:01.134Z,23.8
2023-08-17T16:17:01.040Z,23.7
2023-08-17T16:18:01.575Z,23.8
2023-08-17T16:19:04.158Z,23.7
2023-08-17T16:21:01.213Z,23.7
2023-08-17T16:23:01.131Z,23.7
2023-08-17T16:31:04.273Z,23.5
2023-08-17T16:35:01.102Z,23.6
2023-08-17T16:39:01.214Z,23.4
2023-08-17T16:41:01.113Z,23.5
2023-08-17T16:49:01.112Z,23.3
2023-08-17T16:50:01.208Z,23.4
2023-08-17T16:56:01.763Z,23.2
2023-08-17T16:58:01.204Z,23.1
2023-08-17T17:00:04.256Z,23.2
2023-08-17T17:04:01.035Z,23.1
2023-08-17T17:06:01.010Z,23
2023-08-17T17:08:01.209Z,22.9
2023-08-17T17:09:01.133Z,23
2023-08-17T17:11:01.079Z,22.9
2023-08-17T17:13:01.396Z,23.1
2023-08-17T17:15:01.406Z,22.9
2023-08-17T17:17:01.104Z,23.1
2023-08-17T17:19:01.156Z,22.9
2023-08-17T17:24:01.085Z,22.6
2023-08-17T17:25:01.152Z,22.7
2023-08-17T17:27:01.150Z,22.6
2023-08-17T17:31:01.199Z,22.5
2023-08-17T17:34:01.296Z,22.6
2023-08-17T17:35:01.253Z,22.4
2023-08-17T17:38:02.087Z,22.3
2023-08-17T17:39:01.203Z,22.2
2023-08-17T17:44:00.986Z,22.1
2023-08-17T17:45:01.077Z,22
2023-08-17T17:46:01.114Z,22.1
2023-08-17T17:47:01.072Z,22
2023-08-17T17:58:01.006Z,21.9
2023-08-17T17:59:01.093Z,22
2023-08-17T18:02:01.042Z,21.9
2023-08-17T18:03:01.132Z,22.1
2023-08-17T18:04:01.465Z,22
2023-08-17T18:06:01.137Z,22.1
2023-08-17T18:08:01.037Z,21.8
2023-08-17T18:09:01.058Z,21.9
2023-08-17T18:11:01.096Z,21.9
2023-08-17T18:14:01.053Z,22
2023-08-17T18:15:01.264Z,21.7
2023-08-17T18:17:01.142Z,21.8
2023-08-17T18:20:00.988Z,22
2023-08-17T18:21:01.083Z,21.7
2023-08-17T18:23:01.188Z,21.9
2023-08-17T18:25:01.076Z,21.8
2023-08-17T18:27:01.051Z,21.8
2023-08-17T18:30:01.200Z,21.8
2023-08-17T18:32:01.041Z,21.8
2023-08-17T18:35:01.135Z,21.6
2023-08-17T18:37:01.107Z,21.6
2023-08-17T18:43:01.034Z,21.7
2023-08-17T18:44:01.147Z,21.6
2023-08-17T18:46:01.261Z,21.4
2023-08-17T18:49:01.136Z,21.5
2023-08-17T18:53:01.299Z,21.4
2023-08-17T18:55:01.120Z,21.1
2023-08-17T18:57:01.518Z,21.4
2023-08-17T18:59:01.159Z,21.4
2023-08-17T19:01:01.084Z,21.3
2023-08-17T19:03:01.252Z,21.2
2023-08-17T19:06:01.079Z,21
2023-08-17T19:07:01.072Z,21.2
2023-08-17T19:09:01.052Z,21.3
2023-08-17T19:10:01.082Z,21.1
2023-08-17T19:13:01.120Z,21.2
2023-08-17T19:15:01.147Z,21.2
2023-08-17T19:17:01.196Z,21.2
2023-08-17T19:19:01.163Z,20.9
2023-08-17T19:20:01.166Z,21.1
2023-08-17T19:23:01.092Z,21
2023-08-17T19:25:03.167Z,20.8
2023-08-17T19:28:01.175Z,21.1
2023-08-17T19:31:01.144Z,20.8
2023-08-17T19:33:01.110Z,20.9
2023-08-17T19:38:01.000Z,20.8
2023-08-17T19:39:01.096Z,21
2023-08-17T19:41:01.252Z,20.9
2023-08-17T19:43:01.215Z,20.9
2023-08-17T19:45:01.121Z,20.9
2023-08-17T19:47:01.070Z,20.9
2023-08-17T19:50:01.012Z,20.8
2023-08-17T19:52:01.098Z,20.9
2023-08-17T19:55:01.074Z,20.8
2023-08-17T19:59:01.178Z,20.7
2023-08-17T20:00:01.146Z,20.9
2023-08-17T20:05:01.010Z,21
2023-08-17T20:06:01.102Z,20.9
2023-08-17T20:08:00.986Z,20.8
2023-08-17T20:09:01.062Z,20.7
2023-08-17T20:11:01.011Z,20.6
2023-08-17T20:13:01.034Z,20.8
2023-08-17T20:16:01.016Z,20.6
2023-08-17T20:18:01.024Z,20.5
2023-08-17T20:20:01.018Z,20.4
2023-08-17T20:21:01.101Z,20.6
2023-08-17T20:23:01.008Z,20.5
2023-08-17T20:26:00.998Z,20.6
2023-08-17T20:27:01.031Z,20.3
2023-08-17T20:29:00.948Z,20.6
2023-08-17T20:33:01.250Z,20.4
2023-08-17T20:35:00.964Z,20.3
2023-08-17T20:36:01.020Z,20.6
2023-08-17T20:38:00.938Z,20.6
2023-08-17T20:39:01.165Z,20.5
2023-08-17T20:42:01.098Z,20.6
2023-08-17T20:44:00.983Z,20.4
2023-08-17T20:45:01.073Z,20.5
2023-08-17T20:47:01.007Z,20.4
2023-08-17T20:48:01.268Z,20.3
2023-08-17T20:50:01.027Z,20.3
2023-08-17T20:54:01.029Z,20.4
2023-08-17T20:56:01.085Z,20.3
2023-08-17T20:58:00.999Z,20.3
2023-08-17T20:59:01.119Z,20.4
2023-08-17T21:00:01.122Z,20.3
2023-08-17T21:03:01.059Z,20.4
2023-08-17T21:05:00.951Z,20.2
2023-08-17T21:06:01.044Z,20.3
2023-08-17T21:10:00.942Z,20.3
2023-08-17T21:11:01.008Z,20.2
2023-08-17T21:12:01.054Z,20.4
2023-08-17T21:14:01.027Z,20.3
2023-08-17T21:17:00.949Z,20.3
2023-08-17T21:18:01.024Z,20.4
2023-08-17T21:20:00.972Z,20.4
2023-08-17T21:21:01.393Z,20.1
2023-08-17T21:23:00.970Z,20.2
2023-08-17T21:24:01.153Z,20.3
2023-08-17T21:27:00.971Z,20.2
2023-08-17T21:29:00.952Z,20.4
2023-08-17T21:31:01.007Z,20.3
2023-08-17T21:33:01.046Z,20.2
2023-08-17T21:36:00.998Z,20.2
2023-08-17T21:37:01.031Z,20.1
2023-08-17T21:39:01.139Z,20.3
2023-08-17T21:41:00.998Z,20.2
2023-08-17T21:42:01.004Z,20.1
2023-08-17T21:44:00.961Z,19.9
2023-08-17T21:45:01.046Z,20
2023-08-17T21:47:01.046Z,20
2023-08-17T21:49:00.970Z,19.8
2023-08-17T21:51:01.056Z,20
2023-08-17T21:54:01.036Z,19.9
2023-08-17T21:56:00.997Z,19.7
2023-08-17T21:58:01.045Z,19.9
2023-08-17T22:02:00.965Z,19.6
2023-08-17T22:03:01.117Z,19.7
2023-08-17T22:08:00.974Z,19.6
2023-08-17T22:10:01.067Z,19.7
2023-08-17T22:12:00.998Z,19.8
2023-08-17T22:14:01.145Z,19.6
2023-08-17T22:16:01.011Z,19.7
2023-08-17T22:17:01.005Z,19.8
2023-08-17T22:18:01.067Z,19.6
2023-08-17T22:22:00.995Z,19.5
2023-08-17T22:23:01.064Z,19.6
2023-08-17T22:24:01.232Z,19.5
2023-08-17T22:28:00.995Z,19.7
2023-08-17T22:30:01.145Z,19.6
2023-08-17T22:34:01.168Z,19.4
2023-08-17T22:36:01.032Z,19.4
2023-08-17T22:38:00.994Z,19.6
2023-08-17T22:39:01.013Z,19.4
2023-08-17T22:42:01.036Z,19.6
2023-08-17T22:43:01.166Z,19.5
2023-08-17T22:46:00.984Z,19.5
2023-08-17T22:50:01.008Z,19.4
2023-08-17T22:51:01.151Z,19.5
2023-08-17T22:53:01.030Z,19.6
2023-08-17T22:55:01.098Z,19.5
2023-08-17T22:56:01.043Z,19.3
2023-08-17T22:58:01.018Z,19.6
2023-08-17T23:02:01.022Z,19.3
2023-08-17T23:03:01.179Z,19.4
2023-08-17T23:05:00.984Z,19.4
2023-08-17T23:06:01.100Z,19.5
2023-08-17T23:08:01.035Z,19.4
2023-08-17T23:09:01.160Z,19.3
2023-08-17T23:11:01.033Z,19.4
2023-08-17T23:12:01.186Z,19.3
2023-08-17T23:14:01.125Z,19.3
2023-08-17T23:18:01.057Z,19.4
2023-08-17T23:19:01.045Z,19.3
2023-08-17T23:20:01.063Z,19.4
2023-08-17T23:21:01.140Z,19.2
2023-08-17T23:23:01.097Z,19.1
2023-08-17T23:28:01.047Z,19.2
2023-08-17T23:29:01.027Z,19.1
2023-08-17T23:33:01.040Z,19.2
2023-08-17T23:34:01.040Z,19.1
2023-08-17T23:37:00.997Z,19
2023-08-17T23:38:01.013Z,19.1
2023-08-17T23:39:01.083Z,19
2023-08-17T23:41:00.986Z,18.9
2023-08-17T23:42:01.159Z,19
2023-08-17T23:44:00.982Z,18.9
2023-08-17T23:45:01.044Z,19
2023-08-17T23:48:01.188Z,19
2023-08-17T23:51:01.062Z,18.8
2023-08-17T23:53:01.027Z,18.9
2023-08-17T23:55:01.036Z,18.8
2023-08-17T23:57:01.064Z,18.9
2023-08-17T23:59:01.087Z,18.9
